Time;durP1;ratioP1;P1;durP2;ratioP2;P2;SDS_P1;SDS_P2;PMS_P1;PMS_P2;Temp;Humidity;BMP_temperature;BMP_pressure;BME280_temperature;BME280_humidity;BME280_pressure;Samples;Min_cycle;Max_cycle;Signal;HPM_P1;HPM_P2
2023/07/22 00:01:05;;;;;;;8.73;6.32;;;;;;;;;;5013553;28;20053;-65
2023/07/22 00:03:30;;;;;;;7.88;5.97;;;;;;;;;;5009661;28;20178;-65
2023/07/22 00:06:09;;;;;;;6.57;5.75;;;;;;;;;;5005002;28;20030;-65
2023/07/22 00:08:36;;;;;;;7.07;5.88;;;;;;;;;;5008053;28;20042;-65
2023/07/22 00:11:02;;;;;;;8.15;6.18;;;;;;;;;;5011801;28;20030;-66
2023/07/22 00:13:28;;;;;;;8.27;6.47;;;;;;;;;;5010189;28;20068;-65
2023/07/22 00:15:53;;;;;;;7.20;5.47;;;;;;;;;;5008611;28;20436;-66
2023/07/22 00:18:19;;;;;;;7.25;5.95;;;;;;;;;;5010991;28;20541;-65
2023/07/22 00:20:44;;;;;;;8.32;6.30;;;;;;;;;;5009921;28;20095;-66
2023/07/22 00:23:10;;;;;;;10.07;7.35;;;;;;;;;;5017923;28;20515;-65
2023/07/22 00:25:36;;;;;;;9.25;7.30;;;;;;;;;;5017765;28;20139;-65
2023/07/22 00:28:01;;;;;;;10.13;8.40;;;;;;;;;;5023419;28;20034;-65
2023/07/22 00:30:28;;;;;;;9.70;7.82;;;;;;;;;;5003720;28;20062;-66
2023/07/22 00:32:53;;;;;;;8.45;7.45;;;;;;;;;;5001002;28;20069;-65
2023/07/22 00:35:19;;;;;;;11.30;8.32;;;;;;;;;;5010791;28;20088;-65
2023/07/22 00:37:44;;;;;;;8.27;7.35;;;;;;;;;;5025048;28;20029;-65
2023/07/22 00:40:12;;;;;;;8.75;7.07;;;;;;;;;;5011413;28;20037;-65
2023/07/22 00:42:38;;;;;;;9.18;7.40;;;;;;;;;;5024677;28;20033;-65
2023/07/22 00:45:05;;;;;;;10.02;7.55;;;;;;;;;;5018587;28;20045;-65
2023/07/22 00:47:32;;;;;;;9.38;7.50;;;;;;;;;;5016641;28;20433;-65
2023/07/22 00:50:00;;;;;;;9.65;7.55;;;;;;;;;;5009872;28;20068;-65
2023/07/22 00:52:25;;;;;;;11.85;9.02;;;;;;;;;;5023677;28;20521;-65
2023/07/22 00:54:51;;;;;;;9.75;7.10;;;;;;;;;;5024408;28;20048;-65
2023/07/22 00:57:16;;;;;;;9.05;6.68;;;;;;;;;;5014869;28;20041;-65
2023/07/22 00:59:42;;;;;;;8.75;6.72;;;;;;;;;;5026613;28;20670;-66
2023/07/22 01:02:07;;;;;;;11.32;7.63;;;;;;;;;;5016590;28;20041;-65
2023/07/22 01:04:35;;;;;;;9.95;6.93;;;;;;;;;;5017305;28;20039;-65
2023/07/22 01:07:06;;;;;;;8.32;6.90;;;;;;;;;;5024569;28;20044;-65
2023/07/22 01:09:35;;;;;;;;;;;;;;;;;;5020514;28;20064;-65
2023/07/22 01:12:01;;;;;;;8.68;6.63;;;;;;;;;;5019386;28;20312;-65
2023/07/22 01:14:26;;;;;;;8.85;6.80;;;;;;;;;;5026476;28;20028;-65
2023/07/22 01:16:51;;;;;;;9.68;6.63;;;;;;;;;;5008281;28;20041;-65
2023/07/22 01:19:18;;;;;;;8.70;6.95;;;;;;;;;;4987780;28;20041;-65
2023/07/22 01:21:46;;;;;;;8.85;6.57;;;;;;;;;;5018759;28;20041;-65
2023/07/22 01:24:12;;;;;;;8.95;7.03;;;;;;;;;;5026020;28;20509;-66
2023/07/22 01:26:37;;;;;;;11.43;7.32;;;;;;;;;;5024726;28;20037;-65
2023/07/22 01:29:04;;;;;;;10.07;7.53;;;;;;;;;;4997420;28;20041;-65
2023/07/22 01:31:30;;;;;;;10.05;7.50;;;;;;;;;;4980000;28;20061;-65
2023/07/22 01:33:55;;;;;;;10.77;8.00;;;;;;;;;;5002663;28;20091;-65
2023/07/22 01:36:21;;;;;;;10.65;7.40;;;;;;;;;;5021640;28;20033;-65
2023/07/22 01:38:46;;;;;;;11.00;8.70;;;;;;;;;;5022977;28;20024;-65
2023/07/22 01:41:12;;;;;;;11.88;8.48;;;;;;;;;;5020064;28;20034;-65
2023/07/22 01:43:37;;;;;;;10.32;7.90;;;;;;;;;;5008371;28;20041;-65
2023/07/22 01:46:02;;;;;;;9.10;7.55;;;;;;;;;;5025397;28;20067;-65
2023/07/22 01:48:28;;;;;;;9.93;7.97;;;;;;;;;;5020420;28;20088;-65
2023/07/22 01:50:53;;;;;;;12.23;7.75;;;;;;;;;;5020947;28;20072;-65
2023/07/22 01:53:20;;;;;;;9.40;7.13;;;;;;;;;;5018443;28;20549;-65
2023/07/22 01:55:45;;;;;;;11.38;7.50;;;;;;;;;;5026632;28;20067;-65
2023/07/22 01:58:11;;;;;;;11.50;7.22;;;;;;;;;;4998838;28;20053;-65
2023/07/22 02:00:36;;;;;;;12.52;7.47;;;;;;;;;;5023770;28;20116;-65
2023/07/22 02:03:01;;;;;;;10.98;7.63;;;;;;;;;;5005780;28;20038;-65
2023/07/22 02:05:28;;;;;;;9.65;7.43;;;;;;;;;;5021329;28;20030;-65
2023/07/22 02:07:55;;;;;;;8.75;6.22;;;;;;;;;;5024093;28;20096;-65
2023/07/22 02:10:20;;;;;;;12.07;7.78;;;;;;;;;;5024012;28;20033;-65
2023/07/22 02:12:46;;;;;;;9.18;6.78;;;;;;;;;;5008701;28;20048;-65
2023/07/22 02:15:11;;;;;;;10.65;6.80;;;;;;;;;;5024219;28;20048;-65
2023/07/22 02:17:37;;;;;;;10.38;7.20;;;;;;;;;;5025608;28;20038;-65
2023/07/22 02:20:04;;;;;;;10.48;6.82;;;;;;;;;;5024907;28;20037;-65
2023/07/22 02:22:30;;;;;;;11.32;7.60;;;;;;;;;;5018356;28;20034;-65
2023/07/22 02:24:55;;;;;;;13.00;8.07;;;;;;;;;;5014232;28;20048;-65
2023/07/22 02:27:20;;;;;;;10.10;7.00;;;;;;;;;;5014329;28;20596;-65
2023/07/22 02:29:46;;;;;;;10.57;7.05;;;;;;;;;;5026584;28;20037;-65
2023/07/22 02:32:11;;;;;;;9.10;6.80;;;;;;;;;;5021185;28;20044;-65
2023/07/22 02:34:37;;;;;;;10.32;6.72;;;;;;;;;;5022692;28;20522;-65
2023/07/22 02:37:03;;;;;;;11.05;6.78;;;;;;;;;;5015268;28;20103;-65
2023/07/22 02:39:28;;;;;;;10.45;6.90;;;;;;;;;;5021013;28;20126;-65
2023/07/22 02:41:53;;;;;;;10.63;7.15;;;;;;;;;;5010461;28;20570;-65
2023/07/22 02:44:19;;;;;;;12.32;7.38;;;;;;;;;;5020832;28;20127;-65
2023/07/22 02:46:44;;;;;;;10.90;7.50;;;;;;;;;;5010987;28;20037;-65
2023/07/22 02:49:09;;;;;;;11.10;7.55;;;;;;;;;;5020457;28;20045;-65
2023/07/22 02:51:35;;;;;;;11.68;7.18;;;;;;;;;;5025591;28;20036;-65
2023/07/22 02:54:00;;;;;;;10.25;8.15;;;;;;;;;;5016810;28;20493;-65
2023/07/22 02:56:26;;;;;;;12.07;7.55;;;;;;;;;;5011193;28;20046;-65
2023/07/22 02:58:52;;;;;;;11.75;7.88;;;;;;;;;;5013012;28;20127;-65
2023/07/22 03:01:18;;;;;;;12.98;7.85;;;;;;;;;;5002851;28;20049;-65
2023/07/22 03:03:44;;;;;;;10.90;7.38;;;;;;;;;;5019465;28;20063;-65
2023/07/22 03:06:09;;;;;;;11.40;7.40;;;;;;;;;;5020878;28;20410;-65
2023/07/22 03:08:35;;;;;;;10.90;7.25;;;;;;;;;;5006830;28;20030;-66
2023/07/22 03:11:01;;;;;;;10.57;7.22;;;;;;;;;;5029131;28;20060;-65
2023/07/22 03:13:29;;;;;;;11.65;7.03;;;;;;;;;;5023325;28;20080;-65
2023/07/22 03:15:55;;;;;;;9.85;6.68;;;;;;;;;;5024014;28;20080;-65
2023/07/22 03:18:21;;;;;;;10.57;7.32;;;;;;;;;;5018515;28;20069;-65
2023/07/22 03:20:46;;;;;;;9.77;6.90;;;;;;;;;;5014828;28;20096;-65
2023/07/22 03:23:11;;;;;;;13.90;7.75;;;;;;;;;;5010041;28;20025;-65
2023/07/22 03:25:37;;;;;;;11.85;7.30;;;;;;;;;;5018048;28;20160;-64
2023/07/22 03:28:04;;;;;;;12.63;7.07;;;;;;;;;;5024105;28;20493;-65
2023/07/22 03:30:30;;;;;;;9.80;7.10;;;;;;;;;;5017773;28;20584;-65
2023/07/22 03:32:55;;;;;;;12.13;7.53;;;;;;;;;;5023152;28;20037;-64
2023/07/22 03:35:21;;;;;;;11.00;8.20;;;;;;;;;;5022369;28;20045;-65
2023/07/22 03:37:46;;;;;;;11.32;7.55;;;;;;;;;;4990597;28;20128;-65
2023/07/22 03:40:14;;;;;;;12.38;7.75;;;;;;;;;;5017621;28;20665;-65
2023/07/22 03:42:40;;;;;;;9.45;6.32;;;;;;;;;;5007509;28;20034;-65
2023/07/22 03:45:07;;;;;;;11.98;7.40;;;;;;;;;;5023613;28;20026;-65
2023/07/22 03:47:32;;;;;;;12.73;7.57;;;;;;;;;;5026936;28;20033;-65
2023/07/22 03:49:58;;;;;;;10.70;6.88;;;;;;;;;;5020440;28;20053;-65
2023/07/22 03:52:23;;;;;;;10.52;7.03;;;;;;;;;;5012527;28;20739;-65
2023/07/22 03:54:49;;;;;;;8.35;6.53;;;;;;;;;;5018320;28;20040;-65
2023/07/22 03:57:14;;;;;;;12.98;7.30;;;;;;;;;;5022849;28;20502;-65
2023/07/22 03:59:40;;;;;;;10.20;6.60;;;;;;;;;;5020466;28;20034;-65
2023/07/22 04:02:05;;;;;;;13.18;7.22;;;;;;;;;;5020585;28;20490;-65
2023/07/22 04:04:31;;;;;;;9.48;6.13;;;;;;;;;;5008362;28;20038;-65
2023/07/22 04:06:56;;;;;;;10.15;5.90;;;;;;;;;;5020970;28;20038;-65
2023/07/22 04:09:22;;;;;;;8.70;4.97;;;;;;;;;;5019709;28;20045;-65
2023/07/22 04:11:47;;;;;;;8.68;5.97;;;;;;;;;;5025749;28;20072;-65
2023/07/22 04:14:12;;;;;;;5.13;2.90;;;;;;;;;;5018689;28;20445;-65
2023/07/22 04:16:39;;;;;;;9.98;6.07;;;;;;;;;;5028518;28;20086;-65
2023/07/22 04:19:04;;;;;;;11.20;6.38;;;;;;;;;;5014973;28;20401;-65
2023/07/22 04:21:29;;;;;;;11.43;6.45;;;;;;;;;;5026078;28;20045;-65
2023/07/22 04:23:55;;;;;;;8.52;5.85;;;;;;;;;;5018923;28;20056;-65
2023/07/22 04:26:20;;;;;;;4.50;2.75;;;;;;;;;;5019898;28;20084;-64
2023/07/22 04:28:45;;;;;;;8.93;5.30;;;;;;;;;;5021693;28;20678;-65
2023/07/22 04:31:11;;;;;;;5.63;2.95;;;;;;;;;;5028940;28;20444;-65
2023/07/22 04:33:36;;;;;;;9.90;6.00;;;;;;;;;;5018414;28;20573;-65
2023/07/22 04:36:02;;;;;;;5.10;3.17;;;;;;;;;;5004578;28;20151;-65
2023/07/22 04:38:28;;;;;;;11.50;7.00;;;;;;;;;;5027460;28;20033;-65
2023/07/22 04:40:53;;;;;;;13.20;6.97;;;;;;;;;;5017870;28;20041;-64
2023/07/22 04:43:19;;;;;;;9.18;5.68;;;;;;;;;;4999581;28;20042;-65
2023/07/22 04:45:47;;;;;;;8.02;5.43;;;;;;;;;;5003079;28;20033;-65
2023/07/22 04:48:15;;;;;;;4.60;2.90;;;;;;;;;;5006331;28;20049;-65
2023/07/22 04:50:44;;;;;;;10.15;6.75;;;;;;;;;;5025765;28;20131;-65
2023/07/22 04:53:09;;;;;;;10.20;7.10;;;;;;;;;;5018592;28;20053;-65
2023/07/22 04:55:36;;;;;;;9.30;6.13;;;;;;;;;;5021046;28;20090;-65
2023/07/22 04:58:02;;;;;;;10.25;7.18;;;;;;;;;;5023831;28;20071;-65
2023/07/22 05:00:28;;;;;;;10.18;7.03;;;;;;;;;;5008687;28;20107;-65
2023/07/22 05:02:56;;;;;;;10.52;7.40;;;;;;;;;;5009967;28;20167;-64
2023/07/22 05:05:21;;;;;;;10.23;7.13;;;;;;;;;;5016754;28;20049;-65
2023/07/22 05:07:49;;;;;;;10.45;7.32;;;;;;;;;;5023767;28;20033;-64
2023/07/22 05:10:15;;;;;;;9.27;6.57;;;;;;;;;;5022438;28;20107;-65
2023/07/22 05:12:41;;;;;;;8.98;7.03;;;;;;;;;;5004195;28;20529;-65
2023/07/22 05:15:07;;;;;;;10.85;7.18;;;;;;;;;;5006753;28;20048;-65
2023/07/22 05:17:33;;;;;;;11.18;7.43;;;;;;;;;;5024392;28;20065;-65
2023/07/22 05:19:58;;;;;;;11.45;7.20;;;;;;;;;;5004393;28;20076;-64
2023/07/22 05:22:24;;;;;;;6.40;4.25;;;;;;;;;;5011265;28;20026;-66
2023/07/22 05:24:50;;;;;;;7.95;6.30;;;;;;;;;;5006476;28;20044;-65
2023/07/22 05:27:17;;;;;;;10.98;5.78;;;;;;;;;;5001116;28;20438;-64
2023/07/22 05:29:42;;;;;;;10.02;6.55;;;;;;;;;;5019298;28;20040;-64
2023/07/22 05:32:08;;;;;;;11.23;6.97;;;;;;;;;;5021292;28;20037;-64
2023/07/22 05:34:33;;;;;;;6.60;4.40;;;;;;;;;;5022258;28;20035;-64
2023/07/22 05:36:59;;;;;;;5.13;3.25;;;;;;;;;;5010502;28;20045;-64
2023/07/22 05:39:25;;;;;;;6.57;4.03;;;;;;;;;;5012510;28;20585;-64
2023/07/22 05:41:50;;;;;;;9.55;6.80;;;;;;;;;;5001954;28;20121;-64
2023/07/22 05:44:16;;;;;;;9.27;6.88;;;;;;;;;;5007639;28;20449;-64
2023/07/22 05:46:41;;;;;;;6.82;4.53;;;;;;;;;;5015738;28;20047;-65
2023/07/22 05:49:07;;;;;;;8.90;6.00;;;;;;;;;;5012288;28;20123;-64
2023/07/22 05:51:32;;;;;;;5.90;3.33;;;;;;;;;;5015925;28;20043;-64
2023/07/22 05:53:58;;;;;;;9.82;6.00;;;;;;;;;;4998657;28;20042;-65
2023/07/22 05:56:23;;;;;;;8.50;5.70;;;;;;;;;;5006489;28;20052;-64
2023/07/22 05:58:49;;;;;;;3.97;2.55;;;;;;;;;;5000491;28;20433;-65
2023/07/22 06:01:14;;;;;;;8.43;5.65;;;;;;;;;;5007202;28;20048;-64
2023/07/22 06:03:40;;;;;;;10.15;6.28;;;;;;;;;;5018612;28;20033;-64
2023/07/22 06:06:06;;;;;;;5.47;3.75;;;;;;;;;;5005497;28;20060;-65
2023/07/22 06:08:31;;;;;;;7.13;5.28;;;;;;;;;;5004560;28;20060;-64
2023/07/22 06:10:56;;;;;;;9.52;5.90;;;;;;;;;;4976444;28;20033;-64
2023/07/22 06:13:22;;;;;;;7.32;5.50;;;;;;;;;;5005043;28;20057;-64
2023/07/22 06:15:47;;;;;;;7.03;4.80;;;;;;;;;;5012706;28;20117;-65
2023/07/22 06:18:13;;;;;;;8.07;5.55;;;;;;;;;;5015247;28;20558;-64
2023/07/22 06:20:38;;;;;;;8.30;5.10;;;;;;;;;;5019670;28;20041;-65
2023/07/22 06:23:04;;;;;;;7.72;5.55;;;;;;;;;;5021881;28;20033;-65
2023/07/22 06:25:29;;;;;;;8.02;5.63;;;;;;;;;;4988077;28;20042;-67
2023/07/22 06:27:55;;;;;;;7.28;4.72;;;;;;;;;;5003305;28;20123;-66
2023/07/22 06:30:20;;;;;;;7.30;5.05;;;;;;;;;;4997789;28;20681;-66
2023/07/22 06:32:46;;;;;;;11.02;5.68;;;;;;;;;;5017455;28;20552;-66
2023/07/22 06:35:12;;;;;;;8.25;5.72;;;;;;;;;;5016456;28;20036;-64
2023/07/22 06:37:37;;;;;;;6.18;4.80;;;;;;;;;;5021719;28;20463;-64
2023/07/22 06:40:04;;;;;;;7.65;5.07;;;;;;;;;;5006640;28;20704;-66
2023/07/22 06:42:29;;;;;;;7.80;5.40;;;;;;;;;;5022747;28;20826;-65
2023/07/22 06:44:55;;;;;;;6.50;4.90;;;;;;;;;;5018548;28;20072;-66
2023/07/22 06:47:20;;;;;;;6.18;4.10;;;;;;;;;;5005985;28;20568;-65
2023/07/22 06:49:46;;;;;;;8.32;5.50;;;;;;;;;;5018229;28;20041;-66
2023/07/22 06:52:11;;;;;;;8.63;5.70;;;;;;;;;;5003010;28;20052;-66
2023/07/22 06:54:37;;;;;;;10.07;5.97;;;;;;;;;;4995978;28;20068;-66
2023/07/22 06:57:03;;;;;;;7.80;4.90;;;;;;;;;;4992233;28;20026;-65
2023/07/22 06:59:28;;;;;;;6.43;4.63;;;;;;;;;;4992626;28;20568;-65
2023/07/22 07:01:54;;;;;;;6.78;4.78;;;;;;;;;;4992194;28;20095;-65
2023/07/22 07:04:20;;;;;;;7.75;5.05;;;;;;;;;;4995521;28;20394;-64
2023/07/22 07:06:46;;;;;;;7.00;5.47;;;;;;;;;;4994357;28;20057;-63
2023/07/22 07:09:11;;;;;;;5.97;4.65;;;;;;;;;;4992553;28;20076;-64
2023/07/22 07:11:37;;;;;;;7.70;4.78;;;;;;;;;;4994068;28;20026;-64
2023/07/22 07:14:03;;;;;;;8.82;5.15;;;;;;;;;;4996216;28;20026;-64
2023/07/22 07:16:31;;;;;;;10.13;4.95;;;;;;;;;;4998788;28;20406;-64
2023/07/22 07:19:00;;;;;;;6.97;5.05;;;;;;;;;;4993886;28;20030;-64
2023/07/22 07:21:26;;;;;;;7.40;4.85;;;;;;;;;;4989749;28;20038;-63
2023/07/22 07:23:52;;;;;;;7.70;4.93;;;;;;;;;;4989267;28;20041;-64
2023/07/22 07:26:18;;;;;;;9.60;4.88;;;;;;;;;;4993660;28;20026;-64
2023/07/22 07:28:44;;;;;;;3.13;1.90;;;;;;;;;;4990902;28;20125;-64
2023/07/22 07:31:09;;;;;;;4.05;2.35;;;;;;;;;;4989724;28;20073;-64
2023/07/22 07:33:35;;;;;;;6.07;4.65;;;;;;;;;;4987677;28;20469;-64
2023/07/22 07:36:01;;;;;;;6.35;5.00;;;;;;;;;;4988996;28;20355;-64
2023/07/22 07:38:26;;;;;;;10.23;5.03;;;;;;;;;;4993942;28;20030;-64
2023/07/22 07:41:00;;;;;;;4.50;3.15;;;;;;;;;;4995698;28;20022;-64
2023/07/22 07:43:26;;;;;;;7.18;4.93;;;;;;;;;;4990928;28;20105;-64
2023/07/22 07:46:12;;;;;;;5.20;3.08;;;;;;;;;;4993135;28;20104;-67
2023/07/22 07:48:38;;;;;;;6.65;4.20;;;;;;;;;;5005445;28;20018;-67
2023/07/22 07:51:03;;;;;;;5.18;3.53;;;;;;;;;;4995051;28;20022;-69
2023/07/22 07:53:28;;;;;;;6.97;3.10;;;;;;;;;;4992347;28;20649;-69
2023/07/22 07:55:54;;;;;;;6.95;4.43;;;;;;;;;;5001014;28;20026;-68
2023/07/22 07:58:19;;;;;;;5.38;3.92;;;;;;;;;;4998785;28;20100;-68
2023/07/22 08:00:45;;;;;;;5.32;3.40;;;;;;;;;;4993223;28;20026;-68
2023/07/22 08:03:10;;;;;;;4.57;2.83;;;;;;;;;;4996694;28;20022;-68
2023/07/22 08:05:35;;;;;;;4.80;3.33;;;;;;;;;;5001475;28;20066;-68
2023/07/22 08:08:01;;;;;;;7.53;3.10;;;;;;;;;;4999775;28;20058;-68
2023/07/22 08:10:26;;;;;;;7.07;3.75;;;;;;;;;;4996048;28;20382;-68
2023/07/22 08:12:51;;;;;;;6.95;4.03;;;;;;;;;;4999049;28;20022;-70
2023/07/22 08:15:17;;;;;;;7.53;5.45;;;;;;;;;;5002247;28;20034;-66
2023/07/22 08:17:42;;;;;;;7.72;5.38;;;;;;;;;;4998279;28;20046;-68
2023/07/22 08:20:09;;;;;;;6.93;4.70;;;;;;;;;;4997853;28;20494;-67
2023/07/22 08:22:34;;;;;;;5.95;3.67;;;;;;;;;;4999464;28;20022;-67
2023/07/22 08:25:00;;;;;;;7.30;5.28;;;;;;;;;;4993860;28;20033;-66
2023/07/22 08:27:25;;;;;;;8.95;5.28;;;;;;;;;;4998076;28;20631;-67
2023/07/22 08:29:50;;;;;;;7.60;4.55;;;;;;;;;;4997988;28;20049;-67
2023/07/22 08:32:16;;;;;;;5.38;4.03;;;;;;;;;;5004316;28;20129;-68
2023/07/22 08:34:41;;;;;;;4.55;2.90;;;;;;;;;;5000664;28;20467;-68
2023/07/22 08:37:06;;;;;;;8.43;5.63;;;;;;;;;;4999744;28;20022;-67
2023/07/22 08:39:32;;;;;;;4.22;1.77;;;;;;;;;;4995249;28;20414;-67
2023/07/22 08:42:03;;;;;;;8.13;5.97;;;;;;;;;;4997300;28;20026;-67
2023/07/22 08:44:35;;;;;;;9.32;6.13;;;;;;;;;;4990733;28;20135;-67
2023/07/22 08:47:04;;;;;;;7.88;5.47;;;;;;;;;;4994403;28;20129;-67
2023/07/22 08:49:30;;;;;;;7.93;6.70;;;;;;;;;;4995194;28;20026;-66
2023/07/22 08:51:57;;;;;;;7.82;5.68;;;;;;;;;;4989760;28;20052;-66
2023/07/22 08:54:23;;;;;;;7.82;6.22;;;;;;;;;;4988525;28;20030;-66
2023/07/22 08:56:50;;;;;;;7.65;5.32;;;;;;;;;;4993475;28;20095;-66
2023/07/22 08:59:19;;;;;;;9.18;5.45;;;;;;;;;;4990362;28;20021;-66
2023/07/22 09:01:47;;;;;;;9.18;5.50;;;;;;;;;;4992596;28;20049;-66
2023/07/22 09:04:13;;;;;;;7.50;5.47;;;;;;;;;;4994018;28;20022;-66
2023/07/22 09:06:39;;;;;;;7.10;5.18;;;;;;;;;;4991146;28;20470;-67
2023/07/22 09:09:07;;;;;;;9.60;5.55;;;;;;;;;;4992028;28;20050;-67
2023/07/22 09:11:35;;;;;;;7.18;5.20;;;;;;;;;;4993698;28;20028;-67
2023/07/22 09:14:04;;;;;;;7.95;5.35;;;;;;;;;;4991058;28;20054;-66
2023/07/22 09:16:30;;;;;;;5.72;3.90;;;;;;;;;;4991050;28;20072;-66
2023/07/22 09:18:57;;;;;;;7.30;5.28;;;;;;;;;;4994920;28;20402;-66
2023/07/22 09:21:22;;;;;;;5.32;4.03;;;;;;;;;;4992661;28;20018;-66
2023/07/22 09:23:48;;;;;;;7.35;5.03;;;;;;;;;;4993133;28;20029;-66
2023/07/22 09:26:15;;;;;;;8.55;5.30;;;;;;;;;;4994814;28;20014;-66
2023/07/22 09:29:07;;;;;;;6.85;4.93;;;;;;;;;;4997024;28;20124;-67
2023/07/22 09:31:47;;;;;;;6.43;4.97;;;;;;;;;;4986026;28;20109;-67
2023/07/22 09:34:13;;;;;;;8.20;5.80;;;;;;;;;;4988615;28;20499;-67
2023/07/22 09:36:51;;;;;;;5.88;4.20;;;;;;;;;;4994282;28;20295;-66
2023/07/22 09:39:16;;;;;;;6.13;4.60;;;;;;;;;;4993098;28;20034;-67
2023/07/22 09:41:42;;;;;;;7.25;4.50;;;;;;;;;;4997698;28;20099;-67
2023/07/22 09:44:10;;;;;;;4.55;2.95;;;;;;;;;;4985369;28;20026;-67
2023/07/22 09:46:36;;;;;;;6.72;4.57;;;;;;;;;;4992264;28;20030;-67
2023/07/22 09:49:06;;;;;;;6.15;4.63;;;;;;;;;;4995474;28;20109;-66
2023/07/22 09:51:39;;;;;;;6.85;5.03;;;;;;;;;;4995499;28;20121;-66
2023/07/22 09:54:05;;;;;;;7.70;5.18;;;;;;;;;;4990760;28;20092;-67
2023/07/22 09:56:32;;;;;;;7.35;5.15;;;;;;;;;;4988890;28;20105;-67
2023/07/22 09:58:58;;;;;;;5.75;4.50;;;;;;;;;;4990325;28;20092;-67
2023/07/22 10:01:25;;;;;;;6.82;4.85;;;;;;;;;;4987898;28;20057;-67
2023/07/22 10:03:55;;;;;;;8.32;4.95;;;;;;;;;;4994213;28;20034;-67
2023/07/22 10:06:26;;;;;;;7.88;5.15;;;;;;;;;;4985725;28;20693;-67
2023/07/22 10:08:52;;;;;;;6.80;5.15;;;;;;;;;;4989112;28;20487;-67
2023/07/22 10:11:18;;;;;;;6.88;5.05;;;;;;;;;;4989133;28;20030;-67
2023/07/22 10:13:44;;;;;;;5.97;4.90;;;;;;;;;;4979549;28;20506;-67
2023/07/22 10:16:10;;;;;;;6.95;5.38;;;;;;;;;;4988114;28;20053;-67
2023/07/22 10:18:37;;;;;;;4.68;3.33;;;;;;;;;;4987566;28;20391;-67
2023/07/22 10:21:02;;;;;;;6.10;4.78;;;;;;;;;;4988532;28;20714;-67
2023/07/22 10:23:31;;;;;;;6.68;4.97;;;;;;;;;;4990052;28;20038;-67
2023/07/22 10:25:57;;;;;;;6.10;4.85;;;;;;;;;;4986468;28;20022;-67
2023/07/22 10:28:23;;;;;;;7.65;4.90;;;;;;;;;;4986893;28;20033;-67
2023/07/22 10:30:51;;;;;;;6.05;4.65;;;;;;;;;;4987382;28;20129;-67
2023/07/22 10:33:16;;;;;;;5.03;3.13;;;;;;;;;;4988743;28;20025;-67
2023/07/22 10:35:44;;;;;;;6.32;4.22;;;;;;;;;;4989949;28;20017;-67
2023/07/22 10:38:14;;;;;;;5.25;4.13;;;;;;;;;;4986692;28;20046;-67
2023/07/22 10:40:49;;;;;;;5.78;4.47;;;;;;;;;;4986599;28;20493;-67
2023/07/22 10:43:23;;;;;;;5.78;4.20;;;;;;;;;;4987041;28;20026;-67
2023/07/22 10:45:54;;;;;;;6.13;4.38;;;;;;;;;;4988905;28;20038;-66
2023/07/22 10:48:21;;;;;;;6.45;4.75;;;;;;;;;;4986497;28;20645;-67
2023/07/22 10:50:49;;;;;;;7.35;4.57;;;;;;;;;;4987229;28;20041;-67
2023/07/22 10:53:23;;;;;;;5.82;4.20;;;;;;;;;;4987210;28;20419;-67
2023/07/22 10:56:13;;;;;;;7.22;4.22;;;;;;;;;;4988741;28;20028;-67
2023/07/22 10:58:44;;;;;;;7.80;4.55;;;;;;;;;;4986911;28;20487;-67
2023/07/22 11:01:28;;;;;;;5.63;4.22;;;;;;;;;;4988960;28;20092;-67
2023/07/22 11:04:07;;;;;;;3.83;2.95;;;;;;;;;;4989457;28;20018;-66
2023/07/22 11:06:34;;;;;;;5.47;4.05;;;;;;;;;;4987088;28;20494;-67
2023/07/22 11:09:00;;;;;;;6.40;4.07;;;;;;;;;;4990462;28;20497;-67
2023/07/22 11:11:39;;;;;;;5.03;3.92;;;;;;;;;;4986039;28;20030;-67
2023/07/22 11:14:15;;;;;;;6.35;3.85;;;;;;;;;;4983432;28;20535;-67
2023/07/22 11:16:45;;;;;;;4.20;3.00;;;;;;;;;;4986309;28;20033;-67
2023/07/22 11:19:12;;;;;;;6.65;3.97;;;;;;;;;;4992029;28;20026;-67
2023/07/22 11:21:37;;;;;;;5.40;3.75;;;;;;;;;;4990798;28;20022;-67
2023/07/22 11:24:04;;;;;;;4.68;3.83;;;;;;;;;;4983966;28;20021;-67
2023/07/22 11:26:30;;;;;;;4.53;3.25;;;;;;;;;;4987959;28;20034;-67
2023/07/22 11:28:57;;;;;;;5.55;3.78;;;;;;;;;;4989546;28;20029;-67
2023/07/22 11:31:22;;;;;;;5.70;4.00;;;;;;;;;;4988724;28;20032;-67
2023/07/22 11:33:47;;;;;;;5.22;3.78;;;;;;;;;;4987058;28;20030;-67
2023/07/22 11:36:13;;;;;;;4.88;3.92;;;;;;;;;;4986210;28;20030;-67
2023/07/22 11:38:39;;;;;;;4.93;4.03;;;;;;;;;;4986407;28;20033;-67
2023/07/22 11:41:05;;;;;;;6.03;3.60;;;;;;;;;;4988831;28;20034;-68
2023/07/22 11:43:31;;;;;;;5.57;4.07;;;;;;;;;;4986449;28;21317;-67
2023/07/22 11:45:57;;;;;;;7.70;3.95;;;;;;;;;;4985282;28;20058;-67
2023/07/22 11:48:22;;;;;;;6.60;4.47;;;;;;;;;;4985932;28;20026;-67
2023/07/22 11:50:48;;;;;;;4.95;3.80;;;;;;;;;;4990254;28;20554;-66
2023/07/22 11:53:14;;;;;;;5.10;3.80;;;;;;;;;;4983524;28;20030;-67
2023/07/22 11:55:40;;;;;;;4.97;3.90;;;;;;;;;;4988997;28;20101;-67
2023/07/22 11:58:06;;;;;;;5.53;3.78;;;;;;;;;;4986209;28;20121;-67
2023/07/22 12:00:33;;;;;;;3.90;3.13;;;;;;;;;;4988341;28;20397;-67
2023/07/22 12:03:05;;;;;;;5.57;3.83;;;;;;;;;;4989382;28;20403;-67
2023/07/22 12:05:35;;;;;;;5.90;3.50;;;;;;;;;;4988736;28;20062;-67
2023/07/22 12:08:06;;;;;;;7.40;4.17;;;;;;;;;;4987584;28;20158;-66
2023/07/22 12:10:31;;;;;;;;;;;;;;;;;;4986061;28;20403;-67
2023/07/22 12:13:00;;;;;;;6.30;3.90;;;;;;;;;;4987354;28;20802;-67
2023/07/22 12:15:26;;;;;;;4.50;3.38;;;;;;;;;;4986372;28;20482;-66
2023/07/22 12:18:01;;;;;;;5.18;3.75;;;;;;;;;;4985516;28;20041;-68
2023/07/22 12:20:32;;;;;;;4.15;3.38;;;;;;;;;;4988238;28;20026;-67
2023/07/22 12:23:01;;;;;;;4.55;3.70;;;;;;;;;;4985492;28;20037;-67
2023/07/22 12:25:27;;;;;;;4.20;3.05;;;;;;;;;;4987262;28;20026;-67
2023/07/22 12:27:52;;;;;;;3.75;2.55;;;;;;;;;;4992936;28;20018;-67
2023/07/22 12:30:18;;;;;;;5.10;3.75;;;;;;;;;;4988478;28;20038;-67
2023/07/22 12:32:44;;;;;;;4.93;3.45;;;;;;;;;;4990464;28;20029;-67
2023/07/22 12:35:09;;;;;;;4.35;3.53;;;;;;;;;;4989863;28;20030;-67
2023/07/22 12:37:35;;;;;;;5.20;3.55;;;;;;;;;;4987947;28;20084;-67
2023/07/22 12:40:01;;;;;;;5.88;3.50;;;;;;;;;;4980019;28;20038;-67
2023/07/22 12:42:26;;;;;;;5.82;3.55;;;;;;;;;;4975031;28;20842;-67
2023/07/22 12:44:52;;;;;;;4.47;3.53;;;;;;;;;;4987626;28;20034;-67
2023/07/22 12:47:18;;;;;;;3.90;3.10;;;;;;;;;;4987439;28;20058;-67
2023/07/22 12:49:43;;;;;;;4.78;3.47;;;;;;;;;;4989519;28;20101;-67
2023/07/22 12:52:09;;;;;;;4.55;3.10;;;;;;;;;;4991636;28;20029;-67
2023/07/22 12:54:35;;;;;;;5.10;3.72;;;;;;;;;;4990390;28;20431;-67
2023/07/22 12:57:01;;;;;;;4.65;3.30;;;;;;;;;;4993404;28;20075;-67
2023/07/22 12:59:27;;;;;;;3.92;3.08;;;;;;;;;;4988333;28;20030;-67
2023/07/22 13:01:52;;;;;;;5.75;3.60;;;;;;;;;;4989146;28;20034;-67
2023/07/22 13:04:18;;;;;;;5.07;3.10;;;;;;;;;;4989904;28;20547;-67
2023/07/22 13:06:43;;;;;;;4.07;3.05;;;;;;;;;;4990244;28;20030;-67
2023/07/22 13:09:09;;;;;;;4.78;3.30;;;;;;;;;;4991015;28;20521;-67
2023/07/22 13:11:35;;;;;;;3.80;2.78;;;;;;;;;;4990606;28;20030;-67
2023/07/22 13:14:00;;;;;;;4.07;2.67;;;;;;;;;;4988245;28;20515;-67
2023/07/22 13:16:26;;;;;;;4.72;3.25;;;;;;;;;;4989332;28;20124;-67
2023/07/22 13:18:51;;;;;;;5.07;3.33;;;;;;;;;;4989842;28;20034;-66
2023/07/22 13:21:16;;;;;;;4.45;3.03;;;;;;;;;;4988255;28;20022;-67
2023/07/22 13:23:42;;;;;;;4.22;3.28;;;;;;;;;;4987816;28;20022;-66
2023/07/22 13:26:07;;;;;;;4.05;3.10;;;;;;;;;;4991346;28;20505;-67
2023/07/22 13:28:32;;;;;;;4.47;3.15;;;;;;;;;;4990366;28;20041;-66
2023/07/22 13:30:58;;;;;;;4.45;2.97;;;;;;;;;;4994109;28;20037;-67
2023/07/22 13:33:23;;;;;;;3.85;2.97;;;;;;;;;;4988781;28;20117;-67
2023/07/22 13:35:50;;;;;;;3.95;3.03;;;;;;;;;;4991477;28;20025;-68
2023/07/22 13:38:15;;;;;;;4.38;2.97;;;;;;;;;;4990667;28;20507;-67
2023/07/22 13:40:41;;;;;;;4.25;3.03;;;;;;;;;;4991771;28;20034;-67
2023/07/22 13:43:06;;;;;;;4.50;3.28;;;;;;;;;;4987478;28;20019;-67
2023/07/22 13:45:32;;;;;;;4.15;3.00;;;;;;;;;;4989352;28;20042;-67
2023/07/22 13:47:57;;;;;;;5.45;3.05;;;;;;;;;;4990135;28;20605;-67
2023/07/22 13:50:23;;;;;;;4.30;2.83;;;;;;;;;;4998047;28;20611;-68
2023/07/22 13:52:49;;;;;;;5.13;3.30;;;;;;;;;;5000787;28;20032;-68
2023/07/22 13:55:14;;;;;;;5.28;3.08;;;;;;;;;;4993292;28;20022;-68
2023/07/22 13:57:40;;;;;;;4.95;3.50;;;;;;;;;;4993350;28;20426;-68
2023/07/22 14:00:10;;;;;;;4.13;3.67;;;;;;;;;;4996432;28;20028;-67
2023/07/22 14:02:35;;;;;;;5.30;3.03;;;;;;;;;;4992894;28;20504;-68
2023/07/22 14:05:01;;;;;;;4.57;3.15;;;;;;;;;;4996224;28;20109;-68
2023/07/22 14:07:26;;;;;;;3.80;3.40;;;;;;;;;;4991971;28;20026;-67
2023/07/22 14:09:53;;;;;;;4.50;3.28;;;;;;;;;;4992525;28;20058;-69
2023/07/22 14:12:18;;;;;;;4.10;3.08;;;;;;;;;;4998873;28;20097;-69
2023/07/22 14:14:43;;;;;;;5.10;3.05;;;;;;;;;;4999274;28;20137;-68
2023/07/22 14:17:09;;;;;;;4.13;3.03;;;;;;;;;;4990892;28;20022;-68
2023/07/22 14:19:34;;;;;;;3.58;2.78;;;;;;;;;;4994263;28;20022;-67
2023/07/22 14:21:59;;;;;;;4.13;3.00;;;;;;;;;;4993106;28;20513;-72
2023/07/22 14:24:25;;;;;;;5.90;3.15;;;;;;;;;;4999398;28;20300;-69
2023/07/22 14:26:50;;;;;;;3.75;2.83;;;;;;;;;;4992747;28;20038;-73
2023/07/22 14:29:16;;;;;;;3.92;3.00;;;;;;;;;;4991561;28;20483;-68
2023/07/22 14:31:42;;;;;;;7.63;3.30;;;;;;;;;;4992757;28;20057;-67
2023/07/22 14:34:08;;;;;;;4.10;2.83;;;;;;;;;;4986929;28;20037;-68
2023/07/22 14:36:35;;;;;;;4.10;2.90;;;;;;;;;;4990505;28;20507;-69